Time;durP1;ratioP1;P1;durP2;ratioP2;P2;SDS_P1;SDS_P2;PMS_P1;PMS_P2;Temp;Humidity;BMP_temperature;BMP_pressure;BME280_temperature;BME280_humidity;BME280_pressure;Samples;Min_cycle;Max_cycle;Signal;HPM_P1;HPM_P2
2024/02/09 00:00:12;;;;;;;0.22;0.22;;;1.80;99.90;;;;;;4964835;28;20046;-72
2024/02/09 00:02:42;;;;;;;0.65;0.30;;;1.80;99.90;;;;;;4968888;28;20052;-72
2024/02/09 00:05:09;;;;;;;0.63;0.40;;;1.90;99.90;;;;;;4970126;28;20046;-71
2024/02/09 00:07:35;;;;;;;0.80;0.20;;;1.80;99.90;;;;;;4971024;28;20426;-72
2024/02/09 00:10:01;;;;;;;0.28;0.20;;;1.80;99.90;;;;;;4962694;28;20034;-71
2024/02/09 00:12:27;;;;;;;0.10;0.10;;;1.80;99.90;;;;;;4969974;28;20096;-72
2024/02/09 00:14:52;;;;;;;0.17;0.15;;;1.90;99.90;;;;;;4966496;28;20410;-72
2024/02/09 00:17:18;;;;;;;0.38;0.38;;;1.90;99.90;;;;;;4971079;28;20033;-72
2024/02/09 00:19:46;;;;;;;0.55;0.22;;;1.90;99.90;;;;;;4956018;28;20113;-71
2024/02/09 00:22:12;;;;;;;0.25;0.25;;;2.00;99.90;;;;;;4965826;28;20054;-71
2024/02/09 00:24:43;;;;;;;0.65;0.30;;;1.90;99.90;;;;;;4970679;28;20487;-72
2024/02/09 00:27:09;;;;;;;0.68;0.50;;;1.90;99.90;;;;;;4966898;28;20825;-71
2024/02/09 00:29:37;;;;;;;0.43;0.30;;;1.90;99.90;;;;;;4956716;28;20034;-71
2024/02/09 00:32:04;;;;;;;1.20;0.98;;;1.90;99.90;;;;;;4960179;28;20050;-71
2024/02/09 00:34:33;;;;;;;0.43;0.28;;;1.90;99.90;;;;;;4969812;28;20057;-72
2024/02/09 00:37:00;;;;;;;0.52;0.40;;;1.90;99.90;;;;;;4956705;28;20073;-71
2024/02/09 00:39:26;;;;;;;0.77;0.47;;;1.90;99.90;;;;;;4971038;28;20047;-71
2024/02/09 00:41:53;;;;;;;1.02;0.70;;;1.90;99.90;;;;;;4961184;28;20082;-71
2024/02/09 00:44:18;;;;;;;0.82;0.63;;;1.90;99.90;;;;;;4968301;28;20076;-71
2024/02/09 00:46:46;;;;;;;0.25;0.20;;;2.00;99.90;;;;;;4964837;28;20034;-71
2024/02/09 00:49:13;;;;;;;0.90;0.55;;;2.00;99.90;;;;;;4974691;28;20104;-71
2024/02/09 00:51:41;;;;;;;0.47;0.32;;;2.00;99.90;;;;;;4967501;28;20058;-71
2024/02/09 00:54:07;;;;;;;0.47;0.45;;;2.00;99.90;;;;;;4973192;28;20048;-71
2024/02/09 00:56:33;;;;;;;0.95;0.75;;;2.00;99.90;;;;;;4962069;28;20046;-71
2024/02/09 00:59:01;;;;;;;0.82;0.73;;;2.00;99.90;;;;;;4966109;28;20038;-72
2024/02/09 01:01:28;;;;;;;0.40;0.40;;;2.00;99.90;;;;;;4964488;28;20125;-71
2024/02/09 01:03:53;;;;;;;0.88;0.63;;;2.00;99.90;;;;;;4966502;28;20109;-72
2024/02/09 01:06:21;;;;;;;0.73;0.68;;;2.00;99.90;;;;;;4966254;28;20065;-72
2024/02/09 01:08:47;;;;;;;0.57;0.47;;;2.00;99.90;;;;;;4965596;28;20104;-72
2024/02/09 01:11:14;;;;;;;0.17;0.10;;;2.00;99.90;;;;;;4963688;28;20342;-72
2024/02/09 02:46:26;;;;;;;0.70;0.40;;;2.50;99.90;;;;;;4971422;28;20034;-71
2024/02/09 03:05:26;;;;;;;0.60;0.43;;;2.60;99.90;;;;;;4964338;28;20042;-72
2024/02/09 03:07:56;;;;;;;2.83;0.80;;;2.60;99.90;;;;;;4967146;28;20117;-72
2024/02/09 03:10:23;;;;;;;0.40;0.40;;;2.70;99.90;;;;;;4954934;28;20039;-72
2024/02/09 03:12:49;;;;;;;0.90;0.60;;;2.70;99.90;;;;;;4947739;28;20606;-73
2024/02/09 03:15:18;;;;;;;1.35;0.80;;;2.70;99.90;;;;;;4964984;28;20593;-72
2024/02/09 03:17:45;;;;;;;1.33;1.05;;;2.70;99.90;;;;;;4967324;28;20042;-72
2024/02/09 03:20:11;;;;;;;1.90;1.15;;;2.70;99.90;;;;;;4966760;28;20118;-72
2024/02/09 03:22:37;;;;;;;1.02;0.77;;;2.70;99.90;;;;;;4968892;28;20129;-72
2024/02/09 03:25:04;;;;;;;1.20;0.65;;;2.80;99.90;;;;;;4964068;28;20057;-72
2024/02/09 03:27:32;;;;;;;0.70;0.70;;;2.80;99.90;;;;;;4961722;28;20069;-72
2024/02/09 03:29:59;;;;;;;0.85;0.40;;;2.80;99.90;;;;;;4964111;28;20026;-72
2024/02/09 03:32:29;;;;;;;0.40;0.25;;;2.80;99.90;;;;;;4963866;28;20042;-72
2024/02/09 03:34:59;;;;;;;0.85;0.55;;;2.80;99.90;;;;;;4967819;28;20064;-73
2024/02/09 03:37:30;;;;;;;1.80;0.82;;;2.90;99.90;;;;;;4961534;28;20506;-73
2024/02/09 03:40:01;;;;;;;0.80;0.55;;;2.90;99.90;;;;;;4960757;28;20430;-73
2024/02/09 03:42:27;;;;;;;1.02;0.77;;;2.90;99.90;;;;;;4965301;28;20687;-73
2024/02/09 03:44:54;;;;;;;0.80;0.38;;;2.90;99.90;;;;;;4972148;28;20036;-74
2024/02/09 03:47:24;;;;;;;0.35;0.30;;;2.80;99.90;;;;;;4968958;28;20043;-74
2024/02/09 03:49:51;;;;;;;1.42;0.98;;;2.90;99.90;;;;;;4974508;28;20046;-74
2024/02/09 03:52:19;;;;;;;0.60;0.47;;;3.00;99.90;;;;;;4962339;28;20788;-73
2024/02/09 03:54:45;;;;;;;1.35;0.82;;;3.00;99.90;;;;;;4966830;28;20076;-74
2024/02/09 03:57:11;;;;;;;1.88;1.20;;;3.00;99.90;;;;;;4965845;28;20050;-74
2024/02/09 03:59:39;;;;;;;0.85;0.60;;;3.00;99.90;;;;;;4967377;28;20495;-75
2024/02/09 04:02:06;;;;;;;0.57;0.50;;;3.10;99.90;;;;;;4964219;28;20150;-76
2024/02/09 04:04:32;;;;;;;2.08;1.10;;;3.10;99.90;;;;;;4965069;28;20033;-74
2024/02/09 04:06:59;;;;;;;1.30;0.82;;;3.10;99.90;;;;;;4961968;28;20066;-76
2024/02/09 04:09:25;;;;;;;0.73;0.65;;;3.10;99.90;;;;;;4964119;28;20049;-76
2024/02/09 04:11:51;;;;;;;1.42;0.88;;;3.10;99.90;;;;;;4968735;28;20038;-76
2024/02/09 04:14:17;;;;;;;1.27;0.88;;;3.10;99.90;;;;;;4969117;28;20042;-76
2024/02/09 04:16:43;;;;;;;0.80;0.65;;;3.20;99.90;;;;;;4950556;28;20049;-76
2024/02/09 04:19:08;;;;;;;1.55;1.00;;;3.20;99.90;;;;;;4968385;28;20150;-76
2024/02/09 04:21:34;;;;;;;0.95;0.57;;;3.20;99.90;;;;;;4954129;28;20118;-77
2024/02/09 04:24:00;;;;;;;0.85;0.32;;;3.30;99.90;;;;;;4962876;28;20080;-77
2024/02/09 04:26:26;;;;;;;3.53;2.33;;;3.30;99.90;;;;;;4971838;28;20046;-76
2024/02/09 04:28:54;;;;;;;1.63;0.65;;;3.30;99.90;;;;;;4952985;28;20073;-77
2024/02/09 04:31:20;;;;;;;1.13;0.82;;;3.30;99.90;;;;;;4957531;28;20042;-77
2024/02/09 04:33:46;;;;;;;2.03;1.25;;;3.30;99.90;;;;;;4945884;28;20038;-78
2024/02/09 04:36:11;;;;;;;1.02;0.60;;;3.30;99.90;;;;;;4950656;28;20047;-78
2024/02/09 04:38:40;;;;;;;0.50;0.45;;;3.30;99.90;;;;;;4949270;28;20045;-78
2024/02/09 04:41:07;;;;;;;0.60;0.60;;;3.40;99.90;;;;;;4967725;28;20046;-78
2024/02/09 04:43:34;;;;;;;1.40;0.50;;;3.40;99.90;;;;;;4948715;28;20057;-78
2024/02/09 04:46:00;;;;;;;1.80;0.95;;;3.50;99.90;;;;;;4953026;28;20039;-78
2024/02/09 04:48:26;;;;;;;1.23;0.77;;;3.50;99.90;;;;;;4940664;28;20046;-76
2024/02/09 04:50:51;;;;;;;1.38;0.95;;;3.50;99.90;;;;;;4966604;28;20458;-77
2024/02/09 04:53:18;;;;;;;1.05;0.95;;;3.60;99.90;;;;;;4965787;28;20039;-77
2024/02/09 04:55:44;;;;;;;2.33;1.65;;;3.60;99.90;;;;;;4955518;28;20046;-77
2024/02/09 04:58:10;;;;;;;1.65;0.85;;;3.60;99.90;;;;;;4962867;28;20026;-78
2024/02/09 05:00:35;;;;;;;1.38;0.93;;;3.70;99.90;;;;;;4957885;28;20506;-77
2024/02/09 05:03:03;;;;;;;1.65;1.10;;;3.60;99.90;;;;;;4969858;28;20038;-77
2024/02/09 05:05:32;;;;;;;1.75;1.08;;;3.70;99.90;;;;;;4967065;28;20085;-78
2024/02/09 05:07:59;;;;;;;2.60;1.25;;;3.80;99.90;;;;;;4958961;28;20109;-79
2024/02/09 05:10:24;;;;;;;1.30;0.85;;;3.80;99.90;;;;;;4965891;28;20049;-79
2024/02/09 05:12:52;;;;;;;1.17;0.60;;;3.90;99.90;;;;;;4962130;28;20121;-79
2024/02/09 05:15:18;;;;;;;0.57;0.50;;;3.90;99.90;;;;;;4969542;28;20158;-80
2024/02/09 05:17:43;;;;;;;3.60;1.25;;;3.90;99.90;;;;;;4960234;28;20125;-79
2024/02/09 05:20:13;;;;;;;2.55;1.15;;;4.00;99.90;;;;;;4966735;28;20076;-80
2024/02/09 05:22:39;;;;;;;2.20;1.23;;;4.00;99.90;;;;;;4954929;28;20388;-80
2024/02/09 05:25:08;;;;;;;2.22;1.25;;;4.00;99.90;;;;;;4965668;28;20129;-80
2024/02/09 05:27:34;;;;;;;3.22;1.60;;;4.00;99.90;;;;;;4973499;28;20089;-80
2024/02/09 05:30:00;;;;;;;2.58;1.60;;;4.00;99.90;;;;;;4970448;28;20058;-80
2024/02/09 05:32:25;;;;;;;1.10;0.75;;;4.10;99.90;;;;;;4972645;28;20038;-79
2024/02/09 05:34:51;;;;;;;2.28;1.08;;;4.10;99.90;;;;;;4956026;28;20053;-79
2024/02/09 05:37:17;;;;;;;3.00;2.10;;;4.10;99.90;;;;;;4971372;28;20177;-80
2024/02/09 05:39:44;;;;;;;2.10;1.25;;;4.10;99.90;;;;;;4961861;28;20518;-79
2024/02/09 05:42:10;;;;;;;4.07;1.67;;;4.10;99.90;;;;;;4952186;28;20034;-79
2024/02/09 05:44:36;;;;;;;2.25;1.60;;;4.20;99.90;;;;;;4972865;28;20194;-77
2024/02/09 05:47:02;;;;;;;4.38;1.83;;;4.30;99.90;;;;;;4968973;28;20045;-77
2024/02/09 05:49:28;;;;;;;3.03;1.40;;;4.30;99.90;;;;;;4975231;28;20038;-78
2024/02/09 05:51:53;;;;;;;1.85;1.35;;;4.40;99.90;;;;;;4959912;28;20172;-79
2024/02/09 05:54:19;;;;;;;1.75;1.08;;;4.40;99.90;;;;;;4952133;28;20088;-80
2024/02/09 05:56:46;;;;;;;2.25;1.33;;;4.40;99.90;;;;;;4965823;28;20054;-80
2024/02/09 05:59:14;;;;;;;2.88;1.25;;;4.50;99.90;;;;;;4957540;28;20046;-81
2024/02/09 06:01:40;;;;;;;2.30;1.50;;;4.50;99.90;;;;;;4954008;28;20031;-80
2024/02/09 06:04:05;;;;;;;4.30;2.15;;;4.40;99.90;;;;;;4957497;28;20041;-79
2024/02/09 06:06:31;;;;;;;2.15;1.48;;;4.60;99.90;;;;;;4967257;28;20041;-80
2024/02/09 06:08:58;;;;;;;2.45;1.45;;;4.60;99.90;;;;;;4973955;28;20045;-80
2024/02/09 06:11:24;;;;;;;1.58;1.17;;;4.60;99.90;;;;;;4971245;28;20399;-79
2024/02/09 06:13:50;;;;;;;2.38;1.65;;;4.70;99.90;;;;;;4966675;28;20042;-80
2024/02/09 06:16:23;;;;;;;1.95;1.05;;;4.70;99.90;;;;;;4951084;28;20049;-79
2024/02/09 06:18:49;;;;;;;2.00;1.58;;;4.70;99.90;;;;;;4952920;28;20042;-79
2024/02/09 06:21:18;;;;;;;2.00;1.52;;;4.70;99.90;;;;;;4971188;28;20082;-79
2024/02/09 06:23:45;;;;;;;6.07;1.38;;;4.80;99.90;;;;;;4969038;28;20117;-80
2024/02/09 06:26:18;;;;;;;1.92;1.00;;;4.80;99.90;;;;;;4976032;28;20042;-78
2024/02/09 06:28:47;;;;;;;2.47;1.67;;;4.90;99.90;;;;;;4969711;28;20043;-79
2024/02/09 06:31:26;;;;;;;2.42;1.65;;;4.90;99.90;;;;;;4971099;28;20050;-79
2024/02/09 06:33:54;;;;;;;3.75;1.65;;;4.90;99.90;;;;;;4965095;28;20035;-78
2024/02/09 06:36:24;;;;;;;1.88;1.20;;;5.00;99.90;;;;;;4960482;28;20034;-78
2024/02/09 06:38:50;;;;;;;1.48;1.05;;;5.00;99.90;;;;;;4966197;28;20053;-79
2024/02/09 06:41:16;;;;;;;3.15;1.88;;;5.10;99.90;;;;;;4973116;28;20137;-79
2024/02/09 06:43:42;;;;;;;3.63;1.85;;;5.10;99.90;;;;;;4958289;28;20051;-79
2024/02/09 06:46:09;;;;;;;3.10;1.50;;;5.20;99.90;;;;;;4971590;28;20037;-79
2024/02/09 06:48:35;;;;;;;3.10;1.30;;;5.20;99.90;;;;;;4963960;28;20125;-79
2024/02/09 06:51:03;;;;;;;1.85;1.33;;;5.20;99.90;;;;;;4974032;28;20129;-80
2024/02/09 06:53:29;;;;;;;2.60;1.52;;;5.30;99.90;;;;;;4964192;28;20386;-80
2024/02/09 06:55:55;;;;;;;3.60;1.42;;;5.30;99.90;;;;;;4970536;28;20510;-80
2024/02/09 06:58:23;;;;;;;3.45;2.03;;;5.40;99.90;;;;;;4950002;28;20042;-80
2024/02/09 07:00:52;;;;;;;2.75;1.85;;;5.40;99.90;;;;;;4949421;28;20073;-81
2024/02/09 07:03:28;;;;;;;5.38;2.17;;;5.40;99.90;;;;;;4949846;28;20046;-81
2024/02/09 07:05:54;;;;;;;1.92;1.60;;;5.50;99.90;;;;;;4959602;28;20048;-81
2024/02/09 07:08:29;;;;;;;1.85;1.38;;;5.60;99.90;;;;;;4952745;28;20042;-81
2024/02/09 07:10:56;;;;;;;4.47;2.80;;;5.60;99.90;;;;;;4951805;28;20371;-81
2024/02/09 07:13:22;;;;;;;3.17;2.05;;;5.60;99.90;;;;;;4963148;28;20050;-80
2024/02/09 07:15:48;;;;;;;3.90;2.42;;;5.70;99.90;;;;;;4950039;28;20390;-80
2024/02/09 07:18:13;;;;;;;2.13;1.42;;;5.80;99.90;;;;;;4965159;28;20045;-79
2024/02/09 07:20:40;;;;;;;2.90;1.85;;;5.90;99.90;;;;;;4968301;28;20049;-79
2024/02/09 07:23:06;;;;;;;3.63;2.63;;;5.90;99.90;;;;;;4950080;28;20035;-77
2024/02/09 07:25:33;;;;;;;4.65;2.28;;;6.00;99.90;;;;;;4964172;28;20070;-78
2024/02/09 07:27:59;;;;;;;3.03;1.90;;;6.00;99.90;;;;;;4969292;28;20033;-78
2024/02/09 07:30:26;;;;;;;6.03;2.45;;;6.10;99.90;;;;;;4970909;28;20046;-78
2024/02/09 07:32:52;;;;;;;5.15;1.75;;;6.20;99.90;;;;;;4955000;28;20046;-77
2024/02/09 07:35:18;;;;;;;5.75;2.85;;;6.30;99.90;;;;;;4962641;28;20667;-78
2024/02/09 07:37:43;;;;;;;3.60;2.42;;;6.40;99.90;;;;;;4955081;28;20042;-79
2024/02/09 07:40:10;;;;;;;3.75;2.15;;;6.40;99.90;;;;;;4967574;28;20045;-79
2024/02/09 07:42:38;;;;;;;3.08;2.28;;;6.50;99.90;;;;;;4953830;28;20044;-79
2024/02/09 07:45:12;;;;;;;2.85;1.83;;;6.60;99.90;;;;;;4947034;28;20483;-79
2024/02/09 07:47:38;;;;;;;4.00;2.47;;;6.60;99.90;;;;;;4951693;28;21380;-78
2024/02/09 07:50:04;;;;;;;5.43;2.80;;;6.70;99.90;;;;;;4969639;28;20038;-79
2024/02/09 07:52:30;;;;;;;3.38;1.90;;;6.80;99.90;;;;;;4964766;28;20057;-78
2024/02/09 07:54:56;;;;;;;4.47;2.35;;;6.90;99.90;;;;;;4952331;28;20034;-78
2024/02/09 07:57:22;;;;;;;3.83;1.80;;;6.90;99.90;;;;;;4950544;28;20039;-78
2024/02/09 07:59:49;;;;;;;3.25;1.70;;;7.00;99.90;;;;;;4963298;28;20109;-78
2024/02/09 08:02:16;;;;;;;3.47;2.15;;;7.10;99.90;;;;;;4944716;28;20137;-79
2024/02/09 08:04:41;;;;;;;2.63;1.60;;;7.10;99.90;;;;;;4974664;28;20046;-79
2024/02/09 08:07:08;;;;;;;4.53;1.75;;;7.20;99.90;;;;;;4960715;28;20034;-81
2024/02/09 08:09:36;;;;;;;3.25;1.25;;;7.20;99.90;;;;;;4968877;28;20046;-79
2024/02/09 08:12:01;;;;;;;1.73;1.08;;;7.30;99.90;;;;;;4960909;28;20047;-79
2024/02/09 08:14:27;;;;;;;2.83;1.45;;;7.40;99.90;;;;;;4954605;28;20126;-80
2024/02/09 08:16:54;;;;;;;2.90;1.45;;;7.60;99.90;;;;;;4966238;28;20061;-80
2024/02/09 08:19:19;;;;;;;1.58;1.25;;;7.60;99.90;;;;;;4947814;28;20057;-80
2024/02/09 08:21:45;;;;;;;1.98;1.38;;;7.70;99.90;;;;;;4962614;28;20474;-80
2024/02/09 08:24:14;;;;;;;3.05;1.30;;;7.80;99.90;;;;;;4963727;28;20030;-80
2024/02/09 08:26:41;;;;;;;2.38;1.38;;;7.90;99.90;;;;;;4967381;28;20059;-80
2024/02/09 08:29:07;;;;;;;2.78;1.42;;;8.00;99.90;;;;;;4969074;28;20123;-79
2024/02/09 08:31:32;;;;;;;6.10;1.00;;;8.10;99.90;;;;;;4969720;28;20134;-79
2024/02/09 08:33:59;;;;;;;1.15;0.70;;;8.20;99.90;;;;;;4967667;28;20074;-78
2024/02/09 08:36:26;;;;;;;0.95;0.73;;;8.40;99.90;;;;;;4960726;28;20046;-77
2024/02/09 08:38:52;;;;;;;2.95;0.75;;;8.60;99.90;;;;;;4967023;28;20305;-77
2024/02/09 08:41:18;;;;;;;2.17;0.80;;;8.70;99.90;;;;;;4967678;28;20073;-77
2024/02/09 08:43:45;;;;;;;1.30;0.40;;;8.70;99.90;;;;;;4969414;28;20037;-78
2024/02/09 08:46:11;;;;;;;2.15;0.43;;;8.80;99.90;;;;;;4967603;28;20049;-75
2024/02/09 08:48:37;;;;;;;0.82;0.38;;;8.90;99.90;;;;;;4968660;28;20030;-76
2024/02/09 08:51:03;;;;;;;1.20;0.75;;;9.00;99.90;;;;;;4964376;28;20695;-75
2024/02/09 08:53:28;;;;;;;1.80;0.90;;;9.10;99.90;;;;;;4966277;28;20100;-76
2024/02/09 08:55:54;;;;;;;0.85;0.57;;;9.10;99.90;;;;;;4975346;28;20030;-77
2024/02/09 08:58:20;;;;;;;1.23;0.40;;;9.20;99.90;;;;;;4963112;28;20097;-77
2024/02/09 09:00:46;;;;;;;0.50;0.43;;;9.20;99.90;;;;;;4968612;28;20479;-77
2024/02/09 09:03:14;;;;;;;0.95;0.70;;;9.30;99.90;;;;;;4962528;28;20093;-77
2024/02/09 09:05:40;;;;;;;1.08;0.80;;;9.30;99.90;;;;;;4968208;28;20254;-77
2024/02/09 09:08:09;;;;;;;0.55;0.40;;;9.40;99.90;;;;;;4953424;28;20043;-77
2024/02/09 09:10:35;;;;;;;0.65;0.38;;;9.40;99.90;;;;;;4970282;28;20057;-76
2024/02/09 09:13:00;;;;;;;1.08;0.50;;;9.50;99.90;;;;;;4966213;28;20057;-76
2024/02/09 09:15:26;;;;;;;0.57;0.40;;;9.40;99.90;;;;;;4975030;28;20718;-75
2024/02/09 09:17:52;;;;;;;0.98;0.25;;;9.50;99.90;;;;;;4963090;28;20038;-75
2024/02/09 09:20:17;;;;;;;0.75;0.45;;;9.60;99.90;;;;;;4972814;28;20125;-75
2024/02/09 09:22:43;;;;;;;0.93;0.43;;;9.70;99.90;;;;;;4963489;28;20047;-76
2024/02/09 09:25:09;;;;;;;0.75;0.60;;;9.60;99.90;;;;;;4955963;28;20097;-75
2024/02/09 09:27:35;;;;;;;1.85;0.40;;;9.70;99.90;;;;;;4966147;28;20051;-75
2024/02/09 09:30:04;;;;;;;0.50;0.30;;;9.70;99.90;;;;;;4966537;28;20030;-75
2024/02/09 09:32:32;;;;;;;0.88;0.52;;;9.70;99.90;;;;;;4965143;28;20043;-74
2024/02/09 09:34:59;;;;;;;0.50;0.43;;;9.80;99.90;;;;;;4964588;28;20050;-73
2024/02/09 09:37:24;;;;;;;0.45;0.30;;;9.80;99.90;;;;;;4965886;28;20193;-73
2024/02/09 09:39:50;;;;;;;2.45;0.40;;;9.80;99.90;;;;;;4964773;28;20132;-73
2024/02/09 09:42:16;;;;;;;0.68;0.47;;;9.80;99.90;;;;;;4957621;28;20033;-74
2024/02/09 09:44:42;;;;;;;1.55;0.40;;;9.80;99.90;;;;;;4965351;28;20042;-73
2024/02/09 09:47:09;;;;;;;0.70;0.30;;;9.80;99.90;;;;;;4974179;28;20042;-72
2024/02/09 09:49:39;;;;;;;0.82;0.50;;;9.80;99.90;;;;;;4963567;28;20049;-72
2024/02/09 09:52:12;;;;;;;0.52;0.40;;;9.90;99.90;;;;;;4969646;28;20042;-73
2024/02/09 09:54:38;;;;;;;2.65;0.55;;;9.90;99.90;;;;;;4961543;28;20047;-74
2024/02/09 09:57:04;;;;;;;1.10;0.20;;;10.00;99.90;;;;;;4976444;28;20042;-75
2024/02/09 09:59:31;;;;;;;0.10;0.05;;;10.00;99.90;;;;;;4962720;28;20582;-75
2024/02/09 10:01:57;;;;;;;0.43;0.32;;;10.00;99.90;;;;;;4974563;28;20126;-76
2024/02/09 10:04:23;;;;;;;1.45;0.60;;;10.10;99.90;;;;;;4968443;28;20097;-76
2024/02/09 10:06:49;;;;;;;1.30;0.55;;;10.10;99.90;;;;;;4981888;28;20545;-75
2024/02/09 10:09:16;;;;;;;0.82;0.47;;;10.20;99.90;;;;;;4971384;28;20042;-75
2024/02/09 10:11:45;;;;;;;1.38;0.55;;;10.20;99.90;;;;;;4969993;28;20042;-75
2024/02/09 10:14:16;;;;;;;2.58;0.70;;;10.20;99.90;;;;;;4970934;28;20046;-75
2024/02/09 10:16:45;;;;;;;0.52;0.28;;;10.20;99.90;;;;;;4971024;28;20044;-75
2024/02/09 10:19:13;;;;;;;1.70;0.70;;;10.20;99.90;;;;;;4968670;28;20590;-76
2024/02/09 10:21:40;;;;;;;1.08;0.50;;;10.30;99.90;;;;;;4951840;28;20479;-76
2024/02/09 10:24:06;;;;;;;1.83;0.38;;;10.30;99.90;;;;;;4953772;28;20035;-75
2024/02/09 10:26:33;;;;;;;0.43;0.32;;;10.30;99.90;;;;;;4967072;28;20469;-76
2024/02/09 10:28:59;;;;;;;10.23;0.73;;;10.30;99.90;;;;;;4961375;28;20035;-77
2024/02/09 10:31:27;;;;;;;0.50;0.40;;;10.30;99.90;;;;;;4965814;28;20051;-77
2024/02/09 10:33:56;;;;;;;0.90;0.22;;;10.30;99.90;;;;;;4972032;28;20046;-77
2024/02/09 10:36:27;;;;;;;0.47;0.43;;;10.30;99.90;;;;;;4948975;28;20038;-78
2024/02/09 10:38:55;;;;;;;0.82;0.43;;;10.30;99.90;;;;;;4971197;28;20505;-78
2024/02/09 10:41:25;;;;;;;0.55;0.40;;;10.40;99.90;;;;;;4963970;28;20386;-79
2024/02/09 10:43:56;;;;;;;1.45;0.52;;;10.40;99.90;;;;;;4974268;28;20070;-79
2024/02/09 10:46:26;;;;;;;1.45;0.68;;;10.40;99.90;;;;;;4961989;28;20037;-79
2024/02/09 10:48:57;;;;;;;1.80;0.90;;;10.40;99.90;;;;;;4949557;28;20604;-79
2024/02/09 10:51:27;;;;;;;0.90;0.40;;;10.50;99.90;;;;;;4967282;28;20050;-79
2024/02/09 10:54:04;;;;;;;1.10;0.35;;;10.50;99.90;;;;;;4983679;28;20073;-79
2024/02/09 10:56:33;;;;;;;1.17;0.52;;;10.50;99.90;;;;;;4966582;28;20042;-79
2024/02/09 10:59:00;;;;;;;1.60;0.68;;;10.50;99.90;;;;;;4973464;28;20038;-79
2024/02/09 11:01:27;;;;;;;0.60;0.35;;;10.50;99.90;;;;;;4940706;28;20535;-79
2024/02/09 11:03:53;;;;;;;0.45;0.28;;;10.50;99.90;;;;;;4956012;28;20046;-78
2024/02/09 11:06:20;;;;;;;1.00;0.35;;;10.60;99.90;;;;;;4956812;28;20070;-78
2024/02/09 11:08:47;;;;;;;3.35;0.60;;;10.60;99.90;;;;;;4971186;28;20081;-78
2024/02/09 11:11:13;;;;;;;0.20;0.20;;;10.70;99.90;;;;;;4950660;28;20069;-78
2024/02/09 11:13:38;;;;;;;3.47;0.57;;;10.80;99.90;;;;;;4942563;28;20087;-78
2024/02/09 11:16:07;;;;;;;0.95;0.55;;;10.80;99.90;;;;;;4963872;28;20042;-77
2024/02/09 11:18:37;;;;;;;2.40;0.50;;;10.80;99.90;;;;;;4972677;28;20042;-78
2024/02/09 11:21:04;;;;;;;1.25;0.60;;;10.90;99.90;;;;;;4959374;28;20054;-76
2024/02/09 11:23:42;;;;;;;2.85;0.57;;;10.90;99.90;;;;;;4948395;28;20034;-77
2024/02/09 11:26:16;;;;;;;1.65;0.47;;;10.90;99.90;;;;;;4967883;28;20050;-77
2024/02/09 11:28:43;;;;;;;1.40;0.50;;;10.90;99.90;;;;;;4968931;28;20043;-77
2024/02/09 11:31:10;;;;;;;0.30;0.25;;;11.00;99.90;;;;;;4949322;28;20051;-76
2024/02/09 11:33:41;;;;;;;6.60;0.55;;;11.00;99.90;;;;;;4961288;28;20046;-76
2024/02/09 11:36:07;;;;;;;0.98;0.40;;;11.10;99.90;;;;;;4954846;28;20414;-76
2024/02/09 11:38:34;;;;;;;0.15;0.15;;;11.10;99.90;;;;;;4962141;28;20416;-76
2024/02/09 11:40:59;;;;;;;1.05;0.68;;;11.20;99.90;;;;;;4970645;28;20375;-76
2024/02/09 11:43:26;;;;;;;0.30;0.28;;;11.20;99.90;;;;;;4965441;28;20045;-76
2024/02/09 11:45:54;;;;;;;2.88;0.90;;;11.20;99.90;;;;;;4953362;28;20071;-76
2024/02/09 11:48:23;;;;;;;0.55;0.50;;;11.30;99.90;;;;;;4961809;28;20049;-77
2024/02/09 11:50:50;;;;;;;8.25;0.55;;;11.20;99.90;;;;;;4973483;28;20074;-76
2024/02/09 11:53:16;;;;;;;1.10;0.43;;;11.30;99.90;;;;;;4964807;28;20111;-76
2024/02/09 11:55:43;;;;;;;0.52;0.32;;;11.30;99.90;;;;;;4955611;28;20113;-77
2024/02/09 11:58:10;;;;;;;0.93;0.40;;;11.30;99.90;;;;;;4966199;28;20740;-76
2024/02/09 12:00:38;;;;;;;2.60;0.70;;;11.40;99.90;;;;;;4968552;28;20632;-76
2024/02/09 12:03:04;;;;;;;0.40;0.30;;;11.50;99.90;;;;;;4951220;28;20042;-76
2024/02/09 12:05:33;;;;;;;0.65;0.45;;;11.60;99.90;;;;;;4955414;28;20524;-76
2024/02/09 12:07:59;;;;;;;1.02;0.50;;;11.70;99.90;;;;;;4968425;28;20030;-75
2024/02/09 12:10:25;;;;;;;1.20;0.68;;;11.70;99.90;;;;;;4968484;28;20115;-76
2024/02/09 12:12:50;;;;;;;0.63;0.45;;;11.60;99.90;;;;;;4970361;28;20112;-75
2024/02/09 12:15:19;;;;;;;0.85;0.50;;;11.60;99.90;;;;;;4965660;28;20045;-76
2024/02/09 12:17:47;;;;;;;1.63;0.95;;;11.50;99.90;;;;;;4961332;28;20124;-75
2024/02/09 12:20:14;;;;;;;1.70;0.47;;;11.60;99.90;;;;;;4968063;28;20189;-75
2024/02/09 12:22:40;;;;;;;2.33;0.70;;;11.60;99.90;;;;;;4969371;28;20046;-75
2024/02/09 12:25:09;;;;;;;2.22;0.55;;;11.70;99.90;;;;;;4944232;28;20045;-75
2024/02/09 12:27:35;;;;;;;1.17;0.57;;;11.70;99.90;;;;;;4952820;28;20054;-76
2024/02/09 12:30:06;;;;;;;6.95;0.77;;;11.70;99.90;;;;;;4954616;28;20695;-75
2024/02/09 12:32:32;;;;;;;0.80;0.47;;;11.80;99.90;;;;;;4945376;28;20051;-76
2024/02/09 12:34:58;;;;;;;0.47;0.20;;;11.70;99.90;;;;;;4958159;28;20532;-75
2024/02/09 12:37:24;;;;;;;2.10;0.73;;;11.80;99.90;;;;;;4946544;28;20078;-75
2024/02/09 12:39:53;;;;;;;1.10;0.40;;;11.80;99.90;;;;;;4961628;28;20052;-75
2024/02/09 12:42:31;;;;;;;9.60;0.60;;;11.70;99.90;;;;;;4961732;28;20121;-75
2024/02/09 12:44:57;;;;;;;0.30;0.20;;;11.60;99.90;;;;;;4965429;28;20074;-75
2024/02/09 12:47:23;;;;;;;1.17;0.50;;;11.60;99.90;;;;;;4949107;28;20081;-76
2024/02/09 12:49:50;;;;;;;0.28;0.20;;;11.60;99.90;;;;;;4961858;28;20487;-75
2024/02/09 12:52:17;;;;;;;0.30;0.20;;;11.60;99.90;;;;;;4962321;28;20089;-76
2024/02/09 12:54:43;;;;;;;0.73;0.50;;;11.60;99.90;;;;;;4962048;28;20042;-77
2024/02/09 12:57:10;;;;;;;1.27;0.90;;;11.60;99.90;;;;;;4952836;28;20390;-75
2024/02/09 12:59:40;;;;;;;1.15;0.28;;;11.60;99.90;;;;;;4962763;28;20093;-75
2024/02/09 13:02:06;;;;;;;0.50;0.30;;;11.70;99.90;;;;;;4964680;28;20108;-76
2024/02/09 13:04:33;;;;;;;2.83;0.90;;;11.70;99.90;;;;;;4946844;28;20130;-76
2024/02/09 13:06:59;;;;;;;0.55;0.32;;;11.70;99.90;;;;;;4952827;28;20382;-76
2024/02/09 13:09:26;;;;;;;1.92;0.30;;;11.70;99.90;;;;;;4966626;28;20036;-77
2024/02/09 13:11:52;;;;;;;1.10;0.47;;;11.70;99.90;;;;;;4953257;28;20101;-76
2024/02/09 13:14:19;;;;;;;0.70;0.55;;;11.70;99.90;;;;;;4958916;28;20139;-76
2024/02/09 13:16:48;;;;;;;0.45;0.30;;;11.70;99.90;;;;;;4966463;28;20045;-76
2024/02/09 13:19:15;;;;;;;1.02;0.52;;;11.70;99.90;;;;;;4970890;28;20132;-76
2024/02/09 13:21:41;;;;;;;0.10;0.10;;;11.70;99.90;;;;;;4970611;28;20094;-77
2024/02/09 13:24:07;;;;;;;0.40;0.30;;;11.60;99.90;;;;;;4957249;28;20037;-76
2024/02/09 13:26:33;;;;;;;0.50;0.28;;;11.60;99.90;;;;;;4963618;28;20750;-78
2024/02/09 13:29:02;;;;;;;0.55;0.28;;;11.60;99.90;;;;;;4951552;28;20043;-79
2024/02/09 13:31:29;;;;;;;0.70;0.20;;;11.60;99.90;;;;;;4950575;28;20052;-79
2024/02/09 13:33:59;;;;;;;1.70;0.32;;;11.50;99.90;;;;;;4965647;28;20066;-79
2024/02/09 13:36:25;;;;;;;1.27;0.50;;;11.50;99.90;;;;;;4969103;28;20041;-80
2024/02/09 13:38:51;;;;;;;0.47;0.30;;;11.60;99.90;;;;;;4970614;28;20050;-79
2024/02/09 13:41:20;;;;;;;1.73;0.20;;;11.60;99.90;;;;;;4975646;28;20042;-79
2024/02/09 13:43:46;;;;;;;0.38;0.20;;;11.60;99.90;;;;;;4976506;28;20044;-77
2024/02/09 13:46:12;;;;;;;1.10;0.30;;;11.50;99.90;;;;;;4964248;28;20448;-80
2024/02/09 13:48:38;;;;;;;0.60;0.30;;;11.50;99.90;;;;;;4969192;28;20039;-80
2024/02/09 13:51:07;;;;;;;0.22;0.22;;;11.50;99.90;;;;;;4971449;28;20042;-80
2024/02/09 13:53:32;;;;;;;3.30;0.47;;;11.50;99.90;;;;;;4954323;28;20045;-80
2024/02/09 13:55:58;;;;;;;0.40;0.25;;;11.50;99.90;;;;;;4976563;28;20042;-81
2024/02/09 13:58:26;;;;;;;2.22;0.50;;;11.50;99.90;;;;;;4968942;28;20046;-80
2024/02/09 14:00:52;;;;;;;2.00;0.55;;;11.50;99.90;;;;;;4959977;28;20406;-81
2024/02/09 14:03:19;;;;;;;0.57;0.40;;;11.60;99.90;;;;;;4960989;28;20399;-80
2024/02/09 14:05:46;;;;;;;1.17;0.30;;;11.60;99.90;;;;;;4962431;28;20044;-81
2024/02/09 14:08:11;;;;;;;1.63;0.35;;;11.60;99.90;;;;;;4963697;28;20462;-79
2024/02/09 14:10:40;;;;;;;0.35;0.22;;;11.70;99.90;;;;;;4971724;28;20049;-80
2024/02/09 14:13:06;;;;;;;1.02;0.28;;;11.70;99.90;;;;;;4961059;28;20078;-79
2024/02/09 14:15:33;;;;;;;1.58;0.60;;;11.70;99.90;;;;;;4972575;28;20471;-79
2024/02/09 14:17:59;;;;;;;0.50;0.28;;;11.80;99.90;;;;;;4956606;28;20502;-78
2024/02/09 14:20:26;;;;;;;0.50;0.30;;;11.70;99.90;;;;;;4972043;28;20043;-78
2024/02/09 14:22:53;;;;;;;0.93;0.30;;;11.80;99.90;;;;;;4951211;28;20038;-80
2024/02/09 14:25:19;;;;;;;0.20;0.13;;;11.70;99.90;;;;;;4962752;28;20073;-78
2024/02/09 14:27:45;;;;;;;0.88;0.30;;;11.70;99.90;;;;;;4950104;28;20059;-78
2024/02/09 14:30:12;;;;;;;1.98;0.30;;;11.80;99.90;;;;;;4973672;28;20490;-78
2024/02/09 14:32:38;;;;;;;1.35;0.30;;;11.80;99.90;;;;;;4972053;28;20352;-79
2024/02/09 14:35:05;;;;;;;0.63;0.47;;;11.80;99.90;;;;;;4971497;28;20129;-79
2024/02/09 14:37:30;;;;;;;0.43;0.30;;;11.80;99.90;;;;;;4964205;28;20106;-79
2024/02/09 14:39:56;;;;;;;4.47;0.32;;;11.70;99.90;;;;;;4954347;28;20046;-79